createdAt,value
2022-10-06T00:00:39.521Z,99.90
2022-10-06T00:03:06.446Z,99.90
2022-10-06T00:05:33.214Z,99.90
2022-10-06T00:08:01.163Z,99.90
2022-10-06T00:10:27.995Z,99.90
2022-10-06T00:12:55.155Z,99.90
2022-10-06T00:15:26.729Z,99.90
2022-10-06T00:17:53.947Z,99.90
2022-10-06T00:20:21.663Z,99.90
2022-10-06T00:22:50.004Z,99.90
2022-10-06T00:25:20.054Z,99.90
2022-10-06T00:27:49.734Z,99.90
2022-10-06T00:30:25.130Z,99.90
2022-10-06T00:32:54.658Z,99.90
2022-10-06T00:35:22.180Z,99.90
2022-10-06T00:37:49.101Z,99.90
2022-10-06T00:40:16.729Z,99.90
2022-10-06T00:42:49.186Z,99.90
2022-10-06T00:45:18.463Z,99.90
2022-10-06T00:47:45.430Z,99.90
2022-10-06T00:50:14.621Z,99.90
2022-10-06T00:52:42.046Z,99.90
2022-10-06T00:55:09.427Z,99.90
2022-10-06T00:57:38.340Z,99.90
2022-10-06T01:00:07.717Z,99.90
2022-10-06T01:02:42.614Z,99.90
2022-10-06T01:05:16.434Z,99.90
2022-10-06T01:07:43.407Z,99.90
2022-10-06T01:10:10.183Z,99.90
2022-10-06T01:12:36.995Z,99.90
2022-10-06T01:15:04.294Z,99.90
2022-10-06T01:18:13.799Z,99.90
2022-10-06T01:20:52.684Z,99.90
2022-10-06T01:23:19.725Z,99.90
2022-10-06T01:25:46.629Z,99.90
2022-10-06T01:28:14.588Z,99.90
2022-10-06T01:30:52.579Z,99.90
2022-10-06T01:33:20.870Z,99.90
2022-10-06T01:35:51.334Z,99.90
2022-10-06T01:38:18.586Z,99.90
2022-10-06T01:40:45.829Z,99.90
2022-10-06T01:43:12.754Z,99.90
2022-10-06T01:45:39.729Z,99.90
2022-10-06T01:48:07.014Z,99.90
2022-10-06T01:50:33.776Z,99.90
2022-10-06T01:53:00.578Z,99.90
2022-10-06T01:55:27.461Z,99.90
2022-10-06T01:57:54.193Z,99.90
2022-10-06T02:00:21.110Z,99.90
2022-10-06T02:02:47.909Z,99.90
2022-10-06T02:05:15.682Z,99.90
2022-10-06T02:07:42.483Z,99.90
2022-10-06T02:10:09.614Z,99.90
2022-10-06T02:12:36.343Z,99.90
2022-10-06T02:15:04.354Z,99.90
2022-10-06T02:17:31.164Z,99.90
2022-10-06T02:19:57.945Z,99.90
2022-10-06T02:22:24.735Z,99.90
2022-10-06T02:24:51.462Z,99.90
2022-10-06T02:27:18.277Z,99.90
2022-10-06T02:29:45.201Z,99.90
2022-10-06T02:32:11.947Z,99.90
2022-10-06T02:34:38.679Z,99.90
2022-10-06T02:37:05.472Z,99.90
2022-10-06T02:39:32.202Z,99.90
2022-10-06T02:41:58.969Z,99.90
2022-10-06T02:44:25.733Z,99.90
2022-10-06T02:46:53.703Z,99.90
2022-10-06T02:49:20.541Z,99.90
2022-10-06T02:51:47.424Z,99.90
2022-10-06T02:54:14.886Z,99.90
2022-10-06T02:56:41.603Z,99.90
2022-10-06T02:59:08.602Z,99.90
2022-10-06T03:01:35.362Z,99.90
2022-10-06T03:04:02.168Z,99.90
2022-10-06T03:06:30.989Z,99.90
2022-10-06T03:09:00.842Z,99.90
2022-10-06T03:11:30.182Z,99.90
2022-10-06T03:13:57.439Z,99.90
2022-10-06T03:16:25.749Z,99.90
2022-10-06T03:18:54.904Z,99.90
2022-10-06T03:21:27.558Z,99.90
2022-10-06T03:23:54.988Z,99.90
2022-10-06T03:26:23.633Z,99.90
2022-10-06T03:28:50.356Z,99.90
2022-10-06T03:31:18.017Z,99.90
2022-10-06T03:33:45.053Z,99.90
2022-10-06T03:36:14.813Z,99.90
2022-10-06T03:38:41.709Z,99.90
2022-10-06T03:41:14.087Z,99.90
2022-10-06T03:43:43.217Z,99.90
2022-10-06T03:46:13.281Z,99.90
2022-10-06T03:48:40.473Z,99.90
2022-10-06T03:51:19.571Z,99.90
2022-10-06T03:53:48.457Z,99.90
2022-10-06T03:56:21.033Z,99.90
2022-10-06T03:58:56.673Z,99.90
2022-10-06T04:01:33.227Z,99.90
2022-10-06T04:04:01.224Z,99.90
2022-10-06T04:06:30.023Z,99.90
2022-10-06T04:08:57.344Z,99.90
2022-10-06T04:11:29.643Z,99.90
2022-10-06T04:14:05.339Z,99.90
2022-10-06T04:16:34.347Z,99.90
2022-10-06T04:19:06.876Z,99.90
2022-10-06T04:21:36.723Z,99.90
2022-10-06T04:24:04.113Z,99.90
2022-10-06T04:26:37.304Z,99.90
2022-10-06T04:29:04.584Z,99.90
2022-10-06T04:31:34.393Z,99.90
2022-10-06T04:34:01.762Z,99.90
2022-10-06T04:36:31.364Z,99.90
2022-10-06T04:39:00.085Z,99.90
2022-10-06T04:41:29.715Z,99.90
2022-10-06T04:43:56.770Z,99.90
2022-10-06T04:46:42.214Z,99.90
2022-10-06T04:49:14.686Z,99.90
2022-10-06T04:51:45.673Z,99.90
2022-10-06T04:54:12.453Z,99.90
2022-10-06T04:56:39.211Z,99.90
2022-10-06T04:59:05.984Z,99.90
2022-10-06T05:01:36.471Z,99.90
2022-10-06T05:04:04.631Z,99.90
2022-10-06T05:06:39.896Z,99.90
2022-10-06T05:09:10.137Z,99.20
2022-10-06T05:11:38.069Z,98.70
2022-10-06T05:14:05.354Z,97.70
2022-10-06T05:16:33.080Z,97.50
2022-10-06T05:19:00.113Z,96.70
2022-10-06T05:21:31.476Z,96.10
2022-10-06T05:23:58.690Z,95.70
2022-10-06T05:26:28.207Z,95.40
2022-10-06T05:28:55.177Z,96.30
2022-10-06T05:31:25.016Z,96.50
2022-10-06T05:33:51.838Z,97.10
2022-10-06T05:36:23.990Z,97.60
2022-10-06T05:38:50.767Z,98.90
2022-10-06T05:41:26.577Z,99.70
2022-10-06T05:43:53.486Z,98.90
2022-10-06T05:46:31.660Z,97.60
2022-10-06T05:49:03.743Z,96.30
2022-10-06T05:51:32.713Z,95.10
2022-10-06T05:54:00.277Z,94.20
2022-10-06T05:56:31.875Z,94.20
2022-10-06T05:58:59.995Z,93.40
2022-10-06T06:01:35.044Z,93.20
2022-10-06T06:04:04.594Z,92.90
2022-10-06T06:06:34.073Z,92.20
2022-10-06T06:09:09.620Z,91.90
2022-10-06T06:11:37.600Z,91.50
2022-10-06T06:14:07.343Z,91.50
2022-10-06T06:16:36.024Z,91.30
2022-10-06T06:19:03.032Z,91.00
2022-10-06T06:21:30.011Z,90.60
2022-10-06T06:23:56.874Z,90.50
2022-10-06T06:26:29.211Z,90.30
2022-10-06T06:29:04.164Z,90.30
2022-10-06T06:31:33.408Z,90.30
2022-10-06T06:34:02.734Z,89.60
2022-10-06T06:36:40.838Z,89.60
2022-10-06T06:39:12.447Z,88.40
2022-10-06T06:41:41.904Z,88.40
2022-10-06T06:44:11.532Z,88.10
2022-10-06T06:46:39.514Z,88.00
2022-10-06T06:49:07.202Z,87.40
2022-10-06T06:51:36.836Z,87.40
2022-10-06T06:54:05.069Z,87.50
2022-10-06T06:56:35.191Z,87.10
2022-10-06T06:59:06.635Z,86.30
2022-10-06T07:01:33.459Z,86.30
2022-10-06T07:04:00.379Z,86.00
2022-10-06T07:06:29.504Z,85.60
2022-10-06T07:08:59.936Z,85.50
2022-10-06T07:11:32.342Z,85.60
2022-10-06T07:14:04.330Z,86.50
2022-10-06T07:16:51.136Z,87.00
2022-10-06T07:19:38.827Z,87.10
2022-10-06T07:22:26.892Z,87.40
2022-10-06T07:25:07.519Z,87.10
2022-10-06T07:27:36.622Z,86.20
2022-10-06T07:30:07.256Z,85.80
2022-10-06T07:32:34.015Z,85.60
2022-10-06T07:35:00.969Z,85.30
2022-10-06T07:37:31.542Z,85.50
2022-10-06T07:39:58.332Z,85.40
2022-10-06T07:42:25.177Z,85.40
2022-10-06T07:45:10.356Z,85.50
2022-10-06T07:47:40.193Z,85.60
2022-10-06T07:50:08.138Z,86.00
2022-10-06T07:52:37.067Z,86.00
2022-10-06T07:55:04.099Z,85.60
2022-10-06T07:57:34.664Z,86.60
2022-10-06T08:00:05.373Z,86.70
2022-10-06T08:02:35.525Z,86.40
2022-10-06T08:05:03.762Z,86.90
2022-10-06T08:07:30.520Z,87.30
2022-10-06T08:09:57.248Z,87.80
2022-10-06T08:12:33.209Z,88.60
2022-10-06T08:15:06.978Z,88.00
2022-10-06T08:17:36.726Z,88.50
2022-10-06T08:20:08.815Z,90.10
2022-10-06T08:22:36.282Z,90.10
2022-10-06T08:25:07.126Z,90.80
2022-10-06T08:27:35.398Z,91.20
2022-10-06T08:30:06.163Z,91.50
2022-10-06T08:32:34.055Z,91.20
2022-10-06T08:35:00.861Z,91.10
2022-10-06T08:37:27.666Z,91.40
2022-10-06T08:39:55.242Z,91.30
2022-10-06T08:42:44.626Z,91.60
2022-10-06T08:45:19.173Z,91.90
2022-10-06T08:48:07.206Z,92.20
2022-10-06T08:50:41.995Z,92.50
2022-10-06T08:53:11.746Z,92.60
2022-10-06T08:55:47.883Z,92.80
2022-10-06T08:58:28.989Z,92.80
2022-10-06T09:01:12.519Z,92.90
2022-10-06T09:03:39.422Z,93.00
2022-10-06T09:06:33.115Z,93.20
2022-10-06T09:09:40.462Z,93.40
2022-10-06T09:12:19.273Z,93.30
2022-10-06T09:14:52.491Z,93.00
2022-10-06T09:17:27.194Z,93.20
2022-10-06T09:20:00.335Z,93.20
2022-10-06T09:22:30.830Z,93.10
2022-10-06T09:25:05.539Z,92.40
2022-10-06T09:27:34.121Z,92.40
2022-10-06T09:30:06.270Z,92.80
2022-10-06T09:32:34.798Z,92.70
2022-10-06T09:35:02.704Z,92.40
2022-10-06T09:37:29.531Z,92.10
2022-10-06T09:39:56.673Z,91.90
2022-10-06T09:42:30.405Z,91.80
2022-10-06T09:45:24.972Z,92.10
2022-10-06T09:47:51.918Z,91.80
2022-10-06T09:50:27.652Z,91.80
2022-10-06T09:53:06.320Z,91.80
2022-10-06T09:55:39.101Z,91.80
2022-10-06T09:58:22.208Z,91.50
2022-10-06T10:01:00.359Z,91.50
2022-10-06T10:03:44.578Z,91.50
2022-10-06T10:06:36.757Z,91.60
2022-10-06T10:09:21.745Z,91.50
2022-10-06T10:12:26.432Z,91.00
2022-10-06T10:15:02.071Z,91.00
2022-10-06T10:17:34.541Z,90.90
2022-10-06T10:20:02.928Z,91.10
2022-10-06T10:22:50.407Z,90.80
2022-10-06T10:25:47.656Z,90.80
2022-10-06T10:28:17.435Z,90.70
2022-10-06T10:31:21.253Z,90.10
2022-10-06T10:34:12.746Z,90.20
2022-10-06T10:37:10.304Z,90.30
2022-10-06T10:39:47.618Z,90.20
2022-10-06T10:42:20.946Z,90.00
2022-10-06T10:44:55.108Z,90.00
2022-10-06T10:47:34.568Z,89.50
2022-10-06T10:50:25.788Z,89.60
2022-10-06T10:52:59.750Z,89.70
2022-10-06T10:55:43.002Z,89.50
2022-10-06T10:58:31.437Z,89.50
2022-10-06T11:01:25.615Z,89.80
2022-10-06T11:03:58.632Z,90.00
2022-10-06T11:06:37.465Z,90.00
2022-10-06T11:09:18.839Z,89.20
2022-10-06T11:11:49.859Z,88.90
2022-10-06T11:14:43.053Z,88.50
2022-10-06T11:17:25.474Z,88.60
2022-10-06T11:20:12.422Z,88.50
2022-10-06T11:23:00.334Z,88.80
2022-10-06T11:26:02.515Z,88.50
2022-10-06T11:29:06.241Z,87.40
2022-10-06T11:31:40.655Z,87.30
2022-10-06T11:34:08.417Z,87.40
2022-10-06T11:37:00.489Z,87.90
2022-10-06T11:39:27.156Z,88.30
2022-10-06T11:42:06.082Z,88.20
2022-10-06T11:44:38.923Z,87.60
2022-10-06T11:47:35.134Z,87.60
2022-10-06T11:50:03.073Z,87.50
2022-10-06T11:52:29.818Z,87.30
2022-10-06T11:55:08.743Z,86.90
2022-10-06T11:57:55.987Z,87.50
2022-10-06T12:00:40.328Z,87.40
2022-10-06T12:03:29.203Z,87.00
2022-10-06T12:05:56.990Z,86.90
2022-10-06T12:08:38.195Z,86.80
2022-10-06T12:11:43.858Z,87.20
2022-10-06T12:17:49.008Z,87.90
2022-10-06T12:20:27.724Z,87.90
2022-10-06T12:23:03.220Z,87.90
2022-10-06T12:25:37.188Z,87.90
2022-10-06T12:28:45.470Z,88.00
2022-10-06T12:31:45.010Z,87.90
2022-10-06T12:34:39.778Z,87.80
2022-10-06T12:37:40.762Z,88.20
2022-10-06T12:40:40.362Z,88.10
2022-10-06T12:43:18.770Z,88.60
2022-10-06T12:45:59.484Z,88.50
2022-10-06T12:48:43.659Z,88.20
2022-10-06T12:51:13.546Z,88.00
2022-10-06T12:53:59.239Z,87.90
2022-10-06T12:56:34.395Z,88.00
2022-10-06T12:59:27.432Z,88.30
2022-10-06T13:02:00.332Z,88.10
2022-10-06T13:04:43.299Z,87.80
2022-10-06T13:07:17.941Z,87.80
2022-10-06T13:09:45.981Z,88.00
2022-10-06T13:12:36.817Z,87.80
2022-10-06T13:15:15.715Z,88.40
2022-10-06T13:17:52.781Z,88.60
2022-10-06T13:20:40.606Z,88.90
2022-10-06T13:23:23.426Z,88.90
2022-10-06T13:26:04.216Z,89.70
2022-10-06T13:28:31.073Z,89.80
2022-10-06T13:31:31.539Z,90.00
2022-10-06T13:34:11.245Z,90.20
2022-10-06T13:36:42.986Z,89.70
2022-10-06T13:39:22.402Z,90.00
2022-10-06T13:41:54.717Z,90.20
2022-10-06T13:44:44.545Z,90.30
2022-10-06T13:47:14.085Z,90.50
2022-10-06T13:49:47.174Z,90.60
2022-10-06T13:52:38.766Z,90.70
2022-10-06T13:55:24.026Z,90.90
2022-10-06T13:58:08.545Z,90.90
2022-10-06T14:01:00.869Z,90.80
2022-10-06T14:03:29.494Z,91.10
2022-10-06T14:06:16.893Z,91.30
2022-10-06T14:08:51.423Z,91.50
2022-10-06T14:11:24.755Z,91.70
2022-10-06T14:14:13.318Z,91.70
2022-10-06T14:16:40.075Z,91.70
2022-10-06T14:19:07.104Z,91.90
2022-10-06T14:21:41.822Z,92.00
2022-10-06T14:24:18.917Z,92.20
2022-10-06T14:26:49.721Z,92.20
2022-10-06T14:29:17.764Z,92.50
2022-10-06T14:31:45.768Z,92.60
2022-10-06T14:34:15.499Z,92.70
2022-10-06T14:36:45.194Z,93.10
2022-10-06T14:39:14.196Z,93.20
2022-10-06T14:41:41.892Z,93.30
2022-10-06T14:44:11.262Z,93.30
2022-10-06T14:46:43.068Z,93.40
2022-10-06T14:49:12.322Z,93.90
2022-10-06T14:51:40.306Z,94.00
2022-10-06T14:54:08.947Z,94.20
2022-10-06T14:56:37.819Z,94.40
2022-10-06T14:59:06.447Z,94.60
2022-10-06T15:01:35.737Z,95.20
2022-10-06T15:04:05.687Z,95.20
2022-10-06T15:06:50.945Z,95.40
2022-10-06T15:09:17.763Z,95.70
2022-10-06T15:11:44.693Z,95.70
2022-10-06T15:14:11.777Z,95.80
2022-10-06T15:16:42.150Z,96.00
2022-10-06T15:19:10.973Z,96.50
2022-10-06T15:21:39.924Z,96.60
2022-10-06T15:24:09.877Z,96.80
2022-10-06T15:26:55.350Z,97.00
2022-10-06T15:29:22.083Z,97.40
2022-10-06T15:31:54.822Z,97.80
2022-10-06T15:34:26.675Z,98.00
2022-10-06T15:36:55.162Z,98.30
2022-10-06T15:39:26.897Z,98.20
2022-10-06T15:41:54.089Z,98.40
2022-10-06T15:44:21.722Z,98.50
2022-10-06T15:46:51.187Z,99.00
2022-10-06T15:49:22.533Z,98.80
2022-10-06T15:51:53.270Z,99.20
2022-10-06T15:54:25.215Z,99.40
2022-10-06T15:57:00.552Z,99.60
2022-10-06T15:59:28.929Z,99.70
2022-10-06T16:01:59.871Z,99.80
2022-10-06T16:04:35.194Z,99.90
2022-10-06T16:07:03.555Z,99.90
2022-10-06T16:09:38.099Z,99.90
2022-10-06T16:12:09.080Z,99.90
2022-10-06T16:14:36.073Z,99.90
2022-10-06T16:17:04.109Z,99.90
2022-10-06T16:19:32.630Z,99.90
2022-10-06T16:22:00.834Z,99.90
2022-10-06T16:24:27.893Z,99.90
2022-10-06T16:26:56.320Z,99.90
2022-10-06T16:29:23.101Z,99.90
2022-10-06T16:31:50.168Z,99.90
2022-10-06T16:34:18.389Z,99.90
2022-10-06T16:36:45.600Z,99.90
2022-10-06T16:39:17.516Z,99.90
2022-10-06T16:41:44.667Z,99.90
2022-10-06T16:44:12.018Z,99.90
2022-10-06T16:46:38.968Z,99.90
2022-10-06T16:49:08.510Z,99.90
2022-10-06T16:51:41.076Z,99.90
2022-10-06T16:54:10.637Z,99.90
2022-10-06T16:56:46.026Z,99.90
2022-10-06T16:59:19.185Z,99.90
2022-10-06T17:01:47.239Z,99.90
2022-10-06T17:04:22.280Z,99.90
2022-10-06T17:06:52.006Z,99.90
2022-10-06T17:09:21.053Z,99.90
2022-10-06T17:11:55.290Z,99.90
2022-10-06T17:14:22.392Z,99.90
2022-10-06T17:16:51.265Z,99.90
2022-10-06T17:19:20.222Z,99.90
2022-10-06T17:21:50.525Z,99.90
2022-10-06T17:24:19.971Z,99.90
2022-10-06T17:26:48.689Z,99.90
2022-10-06T17:29:21.521Z,99.90
2022-10-06T17:31:50.648Z,99.90
2022-10-06T17:34:21.546Z,99.90
2022-10-06T17:36:51.488Z,99.90
2022-10-06T17:39:22.899Z,99.90
2022-10-06T17:41:52.565Z,99.90
2022-10-06T17:44:22.791Z,99.90
2022-10-06T17:46:52.912Z,99.90
2022-10-06T17:49:21.275Z,99.90
2022-10-06T17:51:49.346Z,99.90
2022-10-06T17:54:19.257Z,99.90
2022-10-06T17:56:48.114Z,99.90
2022-10-06T17:59:21.646Z,99.90
2022-10-06T18:01:48.837Z,99.90
2022-10-06T18:04:16.192Z,99.90
2022-10-06T18:06:44.888Z,99.90
2022-10-06T18:09:12.444Z,99.90
2022-10-06T18:11:41.635Z,99.90
2022-10-06T18:14:12.817Z,99.90
2022-10-06T18:16:39.730Z,99.90
2022-10-06T18:19:13.275Z,99.90
2022-10-06T18:21:41.269Z,99.90
2022-10-06T18:24:19.375Z,99.90
2022-10-06T18:26:48.269Z,99.90
2022-10-06T18:29:16.863Z,99.90
2022-10-06T18:31:44.706Z,99.90
2022-10-06T18:36:59.293Z,99.90
2022-10-06T18:39:26.366Z,99.90
2022-10-06T18:41:53.392Z,99.90
2022-10-06T18:44:40.144Z,99.90
2022-10-06T18:47:25.377Z,99.90
2022-10-06T18:49:53.326Z,99.90
2022-10-06T18:52:21.651Z,99.90
2022-10-06T18:54:49.156Z,99.90
2022-10-06T18:57:16.242Z,99.90
2022-10-06T18:59:43.003Z,99.90
2022-10-06T19:02:11.716Z,99.90
2022-10-06T19:04:41.914Z,99.90
2022-10-06T19:07:09.236Z,99.90
2022-10-06T19:09:35.952Z,99.90
2022-10-06T19:12:02.793Z,99.90
2022-10-06T19:14:42.879Z,99.90
2022-10-06T19:17:14.170Z,99.90
2022-10-06T19:19:43.763Z,99.90
2022-10-06T19:22:13.828Z,99.90
2022-10-06T19:24:43.303Z,99.90
2022-10-06T19:27:20.700Z,99.90
2022-10-06T19:29:54.403Z,99.90
2022-10-06T19:32:32.725Z,99.90
2022-10-06T19:35:00.449Z,99.90
2022-10-06T19:37:29.319Z,99.90
2022-10-06T19:39:56.265Z,99.90
2022-10-06T19:42:41.722Z,99.90
2022-10-06T19:45:09.627Z,99.90
2022-10-06T19:47:36.480Z,99.90
2022-10-06T19:50:10.369Z,99.90
2022-10-06T19:52:38.685Z,99.90
2022-10-06T19:55:05.793Z,99.90
2022-10-06T19:57:33.670Z,99.90
2022-10-06T20:00:00.870Z,99.90
2022-10-06T20:02:28.989Z,99.90
2022-10-06T20:04:56.549Z,99.90
2022-10-06T20:07:27.385Z,99.90
2022-10-06T20:09:54.294Z,99.90
2022-10-06T20:12:24.549Z,99.90
2022-10-06T20:14:53.409Z,99.90
2022-10-06T20:17:20.928Z,99.90
2022-10-06T20:19:47.933Z,99.90
2022-10-06T20:22:15.526Z,99.90
2022-10-06T20:24:42.592Z,99.90
2022-10-06T20:27:10.211Z,99.90
2022-10-06T20:29:37.110Z,99.90
2022-10-06T20:32:05.161Z,99.90
2022-10-06T20:34:32.792Z,99.90
2022-10-06T20:37:02.234Z,99.90
2022-10-06T20:39:49.556Z,99.90
2022-10-06T20:42:16.930Z,99.90
2022-10-06T20:44:43.995Z,99.90
2022-10-06T20:47:12.031Z,99.90
2022-10-06T20:49:39.303Z,99.90
2022-10-06T20:52:06.382Z,99.90
2022-10-06T20:54:35.915Z,99.90
2022-10-06T20:57:05.227Z,99.90
2022-10-06T20:59:35.544Z,99.90
2022-10-06T21:02:04.523Z,99.90
2022-10-06T21:04:31.362Z,99.90
2022-10-06T21:06:58.233Z,99.90
2022-10-06T21:09:25.360Z,99.90
2022-10-06T21:11:52.693Z,99.90
2022-10-06T21:14:19.893Z,99.90
2022-10-06T21:16:48.421Z,99.90
2022-10-06T21:19:17.600Z,99.90
2022-10-06T21:21:49.861Z,99.90
2022-10-06T21:24:16.995Z,99.90
2022-10-06T21:26:43.955Z,99.90
2022-10-06T21:29:15.690Z,99.90
2022-10-06T21:31:44.070Z,99.90
2022-10-06T21:34:11.336Z,99.90
2022-10-06T21:36:38.683Z,99.90
2022-10-06T21:39:06.299Z,99.90
2022-10-06T21:41:40.792Z,99.90
2022-10-06T21:44:07.555Z,99.90
2022-10-06T21:46:46.744Z,99.90
2022-10-06T21:49:16.034Z,99.90
2022-10-06T21:51:47.965Z,99.90
2022-10-06T21:54:15.354Z,99.90
2022-10-06T21:56:42.431Z,99.90
2022-10-06T21:59:10.308Z,99.90
2022-10-06T22:01:39.876Z,99.90
2022-10-06T22:04:06.917Z,99.90
2022-10-06T22:06:36.957Z,99.90
2022-10-06T22:09:06.207Z,99.90
2022-10-06T22:11:39.400Z,99.90
2022-10-06T22:14:10.069Z,99.90
2022-10-06T22:16:37.917Z,99.90
2022-10-06T22:19:06.543Z,99.90
2022-10-06T22:21:36.347Z,99.90
2022-10-06T22:24:15.185Z,99.90
2022-10-06T22:26:43.654Z,99.90
2022-10-06T22:29:13.013Z,99.90
2022-10-06T22:31:41.886Z,99.90
2022-10-06T22:34:10.677Z,99.90
2022-10-06T22:36:37.742Z,99.90
2022-10-06T22:39:04.655Z,99.90
2022-10-06T22:41:31.695Z,99.90
2022-10-06T22:43:59.668Z,99.90
2022-10-06T22:46:31.633Z,99.90
2022-10-06T22:48:58.909Z,99.90
2022-10-06T22:51:25.915Z,99.90
2022-10-06T22:53:57.836Z,99.90
2022-10-06T22:56:26.077Z,99.90
2022-10-06T22:58:52.898Z,99.90
2022-10-06T23:01:20.202Z,99.90
2022-10-06T23:03:47.802Z,99.90
2022-10-06T23:06:16.642Z,99.90
2022-10-06T23:08:43.608Z,99.90
2022-10-06T23:11:14.328Z,99.90
2022-10-06T23:13:43.276Z,99.90
2022-10-06T23:16:12.380Z,99.90
2022-10-06T23:18:41.075Z,99.90
2022-10-06T23:21:21.271Z,99.90
2022-10-06T23:23:56.649Z,99.90
2022-10-06T23:26:24.050Z,99.90
2022-10-06T23:28:53.081Z,99.90
2022-10-06T23:31:20.038Z,99.90
2022-10-06T23:33:47.147Z,99.90
2022-10-06T23:36:14.510Z,99.90
2022-10-06T23:38:45.332Z,99.90
2022-10-06T23:41:12.523Z,99.90
2022-10-06T23:43:39.387Z,99.90
2022-10-06T23:46:06.575Z,99.90
2022-10-06T23:48:33.425Z,99.90
2022-10-06T23:51:03.839Z,99.90
2022-10-06T23:53:31.387Z,99.90
2022-10-06T23:55:58.719Z,99.90
2022-10-06T23:58:26.585Z,99.90
